createdAt,value
2019-03-23T00:09:37.280Z,100905.09
2019-03-23T00:19:42.295Z,100891.89
2019-03-23T00:29:47.179Z,100890.13
2019-03-23T00:39:52.159Z,100885.48
2019-03-23T00:49:57.168Z,100874.66
2019-03-23T01:00:02.206Z,100864.72
2019-03-23T01:10:10.019Z,100867.07
2019-03-23T01:20:15.700Z,100849.35
2019-03-23T01:30:20.612Z,100832.54
2019-03-23T01:40:25.604Z,100823.16
2019-03-23T01:50:30.593Z,100814.95
2019-03-23T02:00:36.683Z,100812.47
2019-03-23T02:10:41.998Z,100808.45
2019-03-23T02:20:47.010Z,100789.80
2019-03-23T02:30:52.103Z,100791.70
2019-03-23T02:40:59.771Z,100796.45
2019-03-23T02:51:05.077Z,100790.86
2019-03-23T03:01:09.948Z,100785.07
2019-03-23T03:11:14.960Z,100772.98
2019-03-23T03:21:19.944Z,100765.53
2019-03-23T03:31:24.948Z,100768.07
2019-03-23T03:52:07.282Z,100758.25
2019-03-23T04:02:12.271Z,100748.29
2019-03-23T04:12:17.377Z,100742.23
2019-03-23T04:22:22.775Z,100739.84
2019-03-23T04:32:27.773Z,100750.48
2019-03-23T04:42:32.758Z,100751.45
2019-03-23T04:52:39.288Z,100747.48
2019-03-23T05:02:45.312Z,100752.95
2019-03-23T05:12:51.423Z,100768.16
2019-03-23T05:22:56.416Z,100762.25
2019-03-23T05:33:01.407Z,100768.30
2019-03-23T05:43:06.292Z,100761.23
2019-03-23T05:53:11.348Z,100761.53
2019-03-23T06:03:16.613Z,100752.23
2019-03-23T06:13:21.783Z,100748.30
2019-03-23T06:23:26.903Z,100731.82
2019-03-23T06:33:32.116Z,100724.05
2019-03-23T06:43:37.155Z,100723.18
2019-03-23T06:53:42.065Z,100727.04
2019-03-23T07:03:47.047Z,100731.41
2019-03-23T07:13:52.105Z,100722.38
2019-03-23T07:23:57.037Z,100714.29
2019-03-23T07:41:41.754Z,100703.22
2019-03-23T07:51:46.728Z,100695.27
2019-03-23T08:01:51.705Z,100686.25
2019-03-23T08:11:56.596Z,100669.50
2019-03-23T08:22:01.580Z,100666.83
2019-03-23T08:32:06.495Z,100648.56
2019-03-23T08:42:11.476Z,100629.48
2019-03-23T08:52:16.459Z,100623.02
2019-03-23T09:02:21.998Z,100607.75
2019-03-23T09:12:27.053Z,100605.61
2019-03-23T09:22:31.947Z,100595.30
2019-03-23T09:32:36.941Z,100584.25
2019-03-23T09:42:41.950Z,100571.55
2019-03-23T09:52:46.935Z,100570.78
2019-03-23T10:02:51.937Z,100575.02
2019-03-23T10:12:56.926Z,100559.92
2019-03-23T10:23:03.138Z,100550.77
2019-03-23T10:33:09.168Z,100542.70
2019-03-23T10:43:14.412Z,100536.48
2019-03-23T10:53:23.150Z,100526.27
2019-03-23T11:03:26.195Z,100513.75
2019-03-23T11:13:31.180Z,100504.17
2019-03-23T11:23:36.281Z,100482.17
2019-03-23T11:33:41.378Z,100477.16
2019-03-23T11:43:59.618Z,100462.99
2019-03-23T11:54:13.584Z,100450.63
2019-03-23T12:04:18.564Z,100430.33
2019-03-23T12:14:23.580Z,100421.34
2019-03-23T12:24:28.554Z,100407.53
2019-03-23T12:34:33.544Z,100393.95
2019-03-23T12:44:38.546Z,100397.06
2019-03-23T12:54:43.529Z,100381.13
2019-03-23T13:04:48.536Z,100374.91
2019-03-23T13:14:53.533Z,100366.84
2019-03-23T13:24:58.609Z,100349.73
2019-03-23T13:35:03.616Z,100336.24
2019-03-23T13:45:09.295Z,100305.50
2019-03-23T13:55:25.050Z,100292.89
2019-03-23T14:05:30.039Z,100280.31
2019-03-23T14:15:35.057Z,100268.13
2019-03-23T14:25:40.036Z,100280.27
2019-03-23T14:35:45.029Z,100256.46
2019-03-23T14:45:50.142Z,100237.27
2019-03-23T14:55:55.126Z,100236.90
2019-03-23T15:06:00.128Z,100229.17
2019-03-23T15:16:05.054Z,100222.80
2019-03-23T15:26:10.024Z,100213.08
2019-03-23T15:36:15.203Z,100207.35
2019-03-23T15:46:20.102Z,100197.11
2019-03-23T15:56:25.198Z,100194.99
2019-03-23T16:06:30.297Z,100193.03
2019-03-23T16:16:35.561Z,100184.52
2019-03-23T16:26:40.689Z,100184.03
2019-03-23T16:36:45.686Z,100176.72
2019-03-23T16:46:50.952Z,100182.19
2019-03-23T16:56:56.264Z,100183.95
2019-03-23T17:07:01.483Z,100182.05
2019-03-23T17:17:06.665Z,100174.69
2019-03-23T17:27:12.917Z,100184.92
2019-03-23T17:37:18.315Z,100187.48
2019-03-23T17:47:23.504Z,100187.78
2019-03-23T17:57:28.956Z,100180.95
2019-03-23T18:07:34.349Z,100184.10
2019-03-23T18:17:39.752Z,100181.98
2019-03-23T18:27:45.182Z,100176.59
2019-03-23T18:37:50.423Z,100170.64
2019-03-23T18:47:55.766Z,100174.47
2019-03-23T18:58:01.008Z,100180.59
2019-03-23T19:08:06.561Z,100175.69
2019-03-23T19:18:11.780Z,100177.38
2019-03-23T19:28:17.045Z,100175.66
2019-03-23T19:38:22.285Z,100182.46
2019-03-23T19:48:27.452Z,100179.55
2019-03-23T19:58:32.662Z,100167.91
2019-03-23T20:08:38.216Z,100170.09
2019-03-23T20:18:43.339Z,100166.77
2019-03-23T20:28:48.762Z,100163.80
2019-03-23T20:38:54.178Z,100167.70
2019-03-23T20:48:59.920Z,100168.53
2019-03-23T20:59:05.380Z,100164.77
2019-03-23T21:09:11.029Z,100159.53
2019-03-23T21:19:16.390Z,100158.70
2019-03-23T21:29:21.487Z,100166.95
2019-03-23T21:39:26.690Z,100187.86
2019-03-23T21:49:31.902Z,100187.45
2019-03-23T21:59:36.934Z,100192.23
2019-03-23T22:09:42.029Z,100201.25
2019-03-23T22:19:47.028Z,100193.88
2019-03-23T22:29:52.028Z,100212.72
2019-03-23T22:39:57.010Z,100209.30
2019-03-23T22:50:02.026Z,100215.04
2019-03-23T23:00:13.864Z,100226.14
2019-03-23T23:10:20.394Z,100233.84
2019-03-23T23:20:26.413Z,100238.16
2019-03-23T23:30:31.501Z,100247.53
2019-03-23T23:40:36.387Z,100259.98
2019-03-23T23:50:41.384Z,100256.05
